sensor_id;sensor_type;location;lat;lon;timestamp;P1;durP1;ratioP1;P2;durP2;ratioP2
59207;SDS011;44977;53.132;6.408;2022-07-29T00:04:39;3.72;;;1.38;;
59207;SDS011;44977;53.132;6.408;2022-07-29T00:09:40;5.90;;;1.60;;
59207;SDS011;44977;53.132;6.408;2022-07-29T00:14:40;5.28;;;1.45;;
59207;SDS011;44977;53.132;6.408;2022-07-29T00:19:41;3.55;;;1.30;;
59207;SDS011;44977;53.132;6.408;2022-07-29T00:24:42;3.60;;;1.38;;
59207;SDS011;44977;53.132;6.408;2022-07-29T00:29:42;4.95;;;1.48;;
59207;SDS011;44977;53.132;6.408;2022-07-29T00:34:43;5.32;;;1.50;;
59207;SDS011;44977;53.132;6.408;2022-07-29T00:40:04;4.03;;;1.25;;
59207;SDS011;44977;53.132;6.408;2022-07-29T00:45:05;5.53;;;1.40;;
59207;SDS011;44977;53.132;6.408;2022-07-29T00:50:07;6.22;;;1.63;;
59207;SDS011;44977;53.132;6.408;2022-07-29T00:55:11;4.20;;;1.50;;
59207;SDS011;44977;53.132;6.408;2022-07-29T01:00:15;3.28;;;1.40;;
59207;SDS011;44977;53.132;6.408;2022-07-29T01:05:19;6.07;;;1.50;;
59207;SDS011;44977;53.132;6.408;2022-07-29T01:10:21;2.72;;;1.40;;
59207;SDS011;44977;53.132;6.408;2022-07-29T01:15:23;4.13;;;1.38;;
59207;SDS011;44977;53.132;6.408;2022-07-29T01:31:00;5.85;;;1.73;;
59207;SDS011;44977;53.132;6.408;2022-07-29T01:36:10;4.63;;;1.80;;
59207;SDS011;44977;53.132;6.408;2022-07-29T01:41:15;4.65;;;1.77;;
59207;SDS011;44977;53.132;6.408;2022-07-29T01:46:25;5.43;;;1.88;;
59207;SDS011;44977;53.132;6.408;2022-07-29T01:51:47;4.57;;;1.80;;
59207;SDS011;44977;53.132;6.408;2022-07-29T01:57:15;5.65;;;1.58;;
59207;SDS011;44977;53.132;6.408;2022-07-29T02:02:18;6.07;;;1.73;;
59207;SDS011;44977;53.132;6.408;2022-07-29T02:07:20;5.35;;;1.83;;
59207;SDS011;44977;53.132;6.408;2022-07-29T02:12:23;3.88;;;1.73;;
59207;SDS011;44977;53.132;6.408;2022-07-29T02:17:42;4.20;;;1.92;;
59207;SDS011;44977;53.132;6.408;2022-07-29T02:22:48;5.43;;;1.85;;
59207;SDS011;44977;53.132;6.408;2022-07-29T02:27:52;3.83;;;1.63;;
59207;SDS011;44977;53.132;6.408;2022-07-29T02:32:53;4.75;;;1.67;;
59207;SDS011;44977;53.132;6.408;2022-07-29T02:37:55;6.47;;;2.05;;
59207;SDS011;44977;53.132;6.408;2022-07-29T02:43:15;5.53;;;1.70;;
59207;SDS011;44977;53.132;6.408;2022-07-29T02:48:17;4.38;;;1.77;;
59207;SDS011;44977;53.132;6.408;2022-07-29T02:53:23;4.32;;;1.63;;
59207;SDS011;44977;53.132;6.408;2022-07-29T03:03:56;5.53;;;1.70;;
59207;SDS011;44977;53.132;6.408;2022-07-29T03:09:01;5.32;;;1.60;;
59207;SDS011;44977;53.132;6.408;2022-07-29T03:14:02;5.90;;;1.80;;
59207;SDS011;44977;53.132;6.408;2022-07-29T03:19:05;4.30;;;1.45;;
59207;SDS011;44977;53.132;6.408;2022-07-29T03:24:06;4.43;;;1.83;;
59207;SDS011;44977;53.132;6.408;2022-07-29T03:29:06;4.30;;;1.55;;
59207;SDS011;44977;53.132;6.408;2022-07-29T03:34:07;5.32;;;1.75;;
59207;SDS011;44977;53.132;6.408;2022-07-29T03:39:08;6.43;;;1.90;;
59207;SDS011;44977;53.132;6.408;2022-07-29T03:44:10;5.78;;;1.45;;
59207;SDS011;44977;53.132;6.408;2022-07-29T03:49:12;5.10;;;1.60;;
59207;SDS011;44977;53.132;6.408;2022-07-29T03:54:16;5.78;;;1.85;;
59207;SDS011;44977;53.132;6.408;2022-07-29T03:59:16;6.00;;;1.77;;
59207;SDS011;44977;53.132;6.408;2022-07-29T04:04:19;4.97;;;1.70;;
59207;SDS011;44977;53.132;6.408;2022-07-29T04:09:20;4.70;;;1.48;;
59207;SDS011;44977;53.132;6.408;2022-07-29T04:14:21;5.68;;;1.73;;
59207;SDS011;44977;53.132;6.408;2022-07-29T04:19:21;6.63;;;1.95;;
59207;SDS011;44977;53.132;6.408;2022-07-29T04:24:22;4.72;;;1.80;;
59207;SDS011;44977;53.132;6.408;2022-07-29T04:29:23;3.60;;;1.60;;
59207;SDS011;44977;53.132;6.408;2022-07-29T04:34:23;6.68;;;1.83;;
59207;SDS011;44977;53.132;6.408;2022-07-29T04:39:24;6.68;;;2.15;;
59207;SDS011;44977;53.132;6.408;2022-07-29T04:44:25;7.68;;;1.95;;
59207;SDS011;44977;53.132;6.408;2022-07-29T04:49:26;4.32;;;1.60;;
59207;SDS011;44977;53.132;6.408;2022-07-29T04:54:27;6.75;;;1.92;;
59207;SDS011;44977;53.132;6.408;2022-07-29T04:59:28;8.63;;;2.00;;
59207;SDS011;44977;53.132;6.408;2022-07-29T05:04:28;6.20;;;1.95;;
59207;SDS011;44977;53.132;6.408;2022-07-29T05:09:29;6.15;;;1.80;;
59207;SDS011;44977;53.132;6.408;2022-07-29T05:14:32;5.97;;;1.90;;
59207;SDS011;44977;53.132;6.408;2022-07-29T05:19:33;3.28;;;1.50;;
59207;SDS011;44977;53.132;6.408;2022-07-29T05:24:33;6.30;;;2.10;;
59207;SDS011;44977;53.132;6.408;2022-07-29T05:29:34;6.85;;;1.90;;
59207;SDS011;44977;53.132;6.408;2022-07-29T05:34:35;6.05;;;2.10;;
59207;SDS011;44977;53.132;6.408;2022-07-29T05:39:35;5.68;;;1.98;;
59207;SDS011;44977;53.132;6.408;2022-07-29T05:44:37;6.68;;;1.95;;
59207;SDS011;44977;53.132;6.408;2022-07-29T05:49:38;6.32;;;2.00;;
59207;SDS011;44977;53.132;6.408;2022-07-29T05:54:39;5.20;;;2.05;;
59207;SDS011;44977;53.132;6.408;2022-07-29T05:59:39;7.55;;;2.00;;
59207;SDS011;44977;53.132;6.408;2022-07-29T06:04:43;7.07;;;2.30;;
59207;SDS011;44977;53.132;6.408;2022-07-29T06:09:43;6.65;;;2.22;;
59207;SDS011;44977;53.132;6.408;2022-07-29T06:14:44;7.00;;;2.20;;
59207;SDS011;44977;53.132;6.408;2022-07-29T06:19:45;6.10;;;1.98;;
59207;SDS011;44977;53.132;6.408;2022-07-29T06:24:46;7.10;;;2.30;;
59207;SDS011;44977;53.132;6.408;2022-07-29T06:29:46;6.20;;;2.40;;
59207;SDS011;44977;53.132;6.408;2022-07-29T06:34:47;6.72;;;2.22;;
59207;SDS011;44977;53.132;6.408;2022-07-29T06:39:48;6.50;;;2.28;;
59207;SDS011;44977;53.132;6.408;2022-07-29T06:45:10;6.32;;;2.30;;
59207;SDS011;44977;53.132;6.408;2022-07-29T06:50:11;5.90;;;2.00;;
59207;SDS011;44977;53.132;6.408;2022-07-29T06:55:12;5.90;;;2.10;;
59207;SDS011;44977;53.132;6.408;2022-07-29T07:00:14;5.35;;;2.17;;
59207;SDS011;44977;53.132;6.408;2022-07-29T07:05:15;6.45;;;2.40;;
59207;SDS011;44977;53.132;6.408;2022-07-29T07:10:15;5.53;;;1.80;;
59207;SDS011;44977;53.132;6.408;2022-07-29T07:15:16;6.28;;;2.55;;
59207;SDS011;44977;53.132;6.408;2022-07-29T07:20:17;4.50;;;1.90;;
59207;SDS011;44977;53.132;6.408;2022-07-29T07:25:18;8.85;;;2.17;;
59207;SDS011;44977;53.132;6.408;2022-07-29T07:30:18;7.53;;;2.75;;
59207;SDS011;44977;53.132;6.408;2022-07-29T07:35:19;6.07;;;2.20;;
59207;SDS011;44977;53.132;6.408;2022-07-29T07:40:20;7.07;;;2.38;;
59207;SDS011;44977;53.132;6.408;2022-07-29T07:45:21;7.10;;;2.60;;
59207;SDS011;44977;53.132;6.408;2022-07-29T07:50:21;6.13;;;2.22;;
59207;SDS011;44977;53.132;6.408;2022-07-29T07:55:22;6.00;;;1.92;;
59207;SDS011;44977;53.132;6.408;2022-07-29T08:00:23;5.35;;;2.20;;
59207;SDS011;44977;53.132;6.408;2022-07-29T08:05:24;6.22;;;2.15;;
59207;SDS011;44977;53.132;6.408;2022-07-29T08:10:25;5.97;;;2.20;;
59207;SDS011;44977;53.132;6.408;2022-07-29T08:15:44;8.23;;;2.30;;
59207;SDS011;44977;53.132;6.408;2022-07-29T08:20:45;8.20;;;2.38;;
59207;SDS011;44977;53.132;6.408;2022-07-29T08:25:46;6.97;;;2.42;;
59207;SDS011;44977;53.132;6.408;2022-07-29T08:30:47;6.47;;;2.25;;
59207;SDS011;44977;53.132;6.408;2022-07-29T08:35:48;6.38;;;2.10;;
59207;SDS011;44977;53.132;6.408;2022-07-29T08:40:50;6.80;;;2.80;;
59207;SDS011;44977;53.132;6.408;2022-07-29T08:45:51;14.02;;;2.70;;
59207;SDS011;44977;53.132;6.408;2022-07-29T08:50:53;5.05;;;2.40;;
59207;SDS011;44977;53.132;6.408;2022-07-29T08:55:55;6.57;;;2.17;;
59207;SDS011;44977;53.132;6.408;2022-07-29T09:00:57;6.88;;;2.30;;
59207;SDS011;44977;53.132;6.408;2022-07-29T09:06:02;6.30;;;2.60;;
59207;SDS011;44977;53.132;6.408;2022-07-29T09:11:03;8.20;;;2.70;;
59207;SDS011;44977;53.132;6.408;2022-07-29T09:16:04;8.80;;;2.67;;
59207;SDS011;44977;53.132;6.408;2022-07-29T09:21:06;11.48;;;2.92;;
59207;SDS011;44977;53.132;6.408;2022-07-29T09:26:30;7.88;;;2.58;;
59207;SDS011;44977;53.132;6.408;2022-07-29T09:31:33;8.32;;;2.72;;
59207;SDS011;44977;53.132;6.408;2022-07-29T09:36:42;8.65;;;2.83;;
59207;SDS011;44977;53.132;6.408;2022-07-29T09:41:52;5.28;;;2.15;;
59207;SDS011;44977;53.132;6.408;2022-07-29T09:47:04;7.55;;;2.30;;
59207;SDS011;44977;53.132;6.408;2022-07-29T09:52:08;7.78;;;2.75;;
59207;SDS011;44977;53.132;6.408;2022-07-29T09:57:32;9.02;;;2.63;;
59207;SDS011;44977;53.132;6.408;2022-07-29T10:02:32;8.90;;;2.58;;
59207;SDS011;44977;53.132;6.408;2022-07-29T10:07:44;6.68;;;2.65;;
59207;SDS011;44977;53.132;6.408;2022-07-29T10:12:58;10.48;;;3.30;;
59207;SDS011;44977;53.132;6.408;2022-07-29T10:18:00;7.63;;;2.80;;
59207;SDS011;44977;53.132;6.408;2022-07-29T10:23:00;7.15;;;2.55;;
59207;SDS011;44977;53.132;6.408;2022-07-29T10:28:01;8.52;;;2.47;;
59207;SDS011;44977;53.132;6.408;2022-07-29T10:38:21;6.65;;;2.50;;
59207;SDS011;44977;53.132;6.408;2022-07-29T10:43:42;6.95;;;2.80;;
59207;SDS011;44977;53.132;6.408;2022-07-29T10:54:07;8.32;;;2.85;;
59207;SDS011;44977;53.132;6.408;2022-07-29T11:10:09;5.07;;;2.17;;
59207;SDS011;44977;53.132;6.408;2022-07-29T11:15:13;6.32;;;2.20;;
59207;SDS011;44977;53.132;6.408;2022-07-29T11:25:46;6.25;;;2.40;;
59207;SDS011;44977;53.132;6.408;2022-07-29T11:31:15;7.00;;;2.40;;
59207;SDS011;44977;53.132;6.408;2022-07-29T11:36:19;6.68;;;2.67;;
59207;SDS011;44977;53.132;6.408;2022-07-29T11:41:23;7.53;;;2.60;;
59207;SDS011;44977;53.132;6.408;2022-07-29T11:46:45;8.57;;;2.70;;
59207;SDS011;44977;53.132;6.408;2022-07-29T11:51:50;7.65;;;2.95;;
59207;SDS011;44977;53.132;6.408;2022-07-29T11:56:55;9.05;;;2.90;;
59207;SDS011;44977;53.132;6.408;2022-07-29T12:01:58;8.55;;;3.17;;
59207;SDS011;44977;53.132;6.408;2022-07-29T12:06:59;6.50;;;2.55;;
59207;SDS011;44977;53.132;6.408;2022-07-29T12:12:00;8.48;;;2.70;;
59207;SDS011;44977;53.132;6.408;2022-07-29T12:17:01;7.22;;;2.72;;
59207;SDS011;44977;53.132;6.408;2022-07-29T12:22:02;9.48;;;3.10;;
59207;SDS011;44977;53.132;6.408;2022-07-29T12:27:02;6.35;;;2.72;;
59207;SDS011;44977;53.132;6.408;2022-07-29T12:32:03;8.25;;;2.90;;
59207;SDS011;44977;53.132;6.408;2022-07-29T12:37:06;9.38;;;3.22;;
59207;SDS011;44977;53.132;6.408;2022-07-29T12:42:15;8.38;;;3.00;;
59207;SDS011;44977;53.132;6.408;2022-07-29T12:47:18;7.35;;;2.40;;
59207;SDS011;44977;53.132;6.408;2022-07-29T12:52:27;10.15;;;2.60;;
59207;SDS011;44977;53.132;6.408;2022-07-29T12:57:43;6.97;;;2.38;;
59207;SDS011;44977;53.132;6.408;2022-07-29T13:02:53;5.38;;;2.30;;
59207;SDS011;44977;53.132;6.408;2022-07-29T13:07:56;10.13;;;2.50;;
59207;SDS011;44977;53.132;6.408;2022-07-29T13:13:14;7.72;;;2.28;;
59207;SDS011;44977;53.132;6.408;2022-07-29T13:18:31;10.57;;;3.00;;
59207;SDS011;44977;53.132;6.408;2022-07-29T13:23:33;5.22;;;2.03;;
59207;SDS011;44977;53.132;6.408;2022-07-29T13:28:34;7.57;;;2.03;;
59207;SDS011;44977;53.132;6.408;2022-07-29T13:33:35;7.95;;;2.50;;
59207;SDS011;44977;53.132;6.408;2022-07-29T13:38:36;8.15;;;2.33;;
59207;SDS011;44977;53.132;6.408;2022-07-29T13:43:36;7.07;;;2.20;;
59207;SDS011;44977;53.132;6.408;2022-07-29T13:48:37;7.07;;;2.53;;
59207;SDS011;44977;53.132;6.408;2022-07-29T13:53:38;6.70;;;2.47;;
59207;SDS011;44977;53.132;6.408;2022-07-29T13:58:39;6.88;;;2.08;;
59207;SDS011;44977;53.132;6.408;2022-07-29T14:03:39;7.22;;;2.20;;
59207;SDS011;44977;53.132;6.408;2022-07-29T14:08:42;8.70;;;2.30;;
59207;SDS011;44977;53.132;6.408;2022-07-29T14:13:43;6.80;;;2.05;;
59207;SDS011;44977;53.132;6.408;2022-07-29T14:18:44;7.45;;;2.63;;
59207;SDS011;44977;53.132;6.408;2022-07-29T14:23:45;6.05;;;2.20;;
59207;SDS011;44977;53.132;6.408;2022-07-29T14:28:45;8.13;;;2.58;;
59207;SDS011;44977;53.132;6.408;2022-07-29T14:33:46;6.85;;;3.30;;
59207;SDS011;44977;53.132;6.408;2022-07-29T14:38:47;7.28;;;2.50;;
59207;SDS011;44977;53.132;6.408;2022-07-29T14:43:48;6.57;;;2.40;;
59207;SDS011;44977;53.132;6.408;2022-07-29T14:48:48;7.70;;;2.40;;
59207;SDS011;44977;53.132;6.408;2022-07-29T14:53:49;9.23;;;2.45;;
59207;SDS011;44977;53.132;6.408;2022-07-29T14:58:50;8.25;;;2.40;;
59207;SDS011;44977;53.132;6.408;2022-07-29T15:03:51;6.70;;;2.80;;
59207;SDS011;44977;53.132;6.408;2022-07-29T15:08:52;8.07;;;2.58;;
59207;SDS011;44977;53.132;6.408;2022-07-29T15:13:52;5.97;;;2.20;;
59207;SDS011;44977;53.132;6.408;2022-07-29T15:18:53;6.53;;;1.95;;
59207;SDS011;44977;53.132;6.408;2022-07-29T15:23:54;6.40;;;1.88;;
59207;SDS011;44977;53.132;6.408;2022-07-29T15:28:54;6.45;;;2.33;;
59207;SDS011;44977;53.132;6.408;2022-07-29T15:33:58;8.90;;;2.50;;
59207;SDS011;44977;53.132;6.408;2022-07-29T15:38:58;7.78;;;2.30;;
59207;SDS011;44977;53.132;6.408;2022-07-29T15:43:59;6.28;;;2.13;;
59207;SDS011;44977;53.132;6.408;2022-07-29T15:49:00;5.90;;;2.22;;
59207;SDS011;44977;53.132;6.408;2022-07-29T15:54:03;6.25;;;2.33;;
59207;SDS011;44977;53.132;6.408;2022-07-29T15:59:04;6.35;;;2.15;;
59207;SDS011;44977;53.132;6.408;2022-07-29T16:04:05;7.60;;;2.30;;
59207;SDS011;44977;53.132;6.408;2022-07-29T16:09:06;6.80;;;2.40;;
59207;SDS011;44977;53.132;6.408;2022-07-29T16:14:06;5.65;;;2.50;;
59207;SDS011;44977;53.132;6.408;2022-07-29T16:19:07;5.25;;;2.00;;
59207;SDS011;44977;53.132;6.408;2022-07-29T16:24:08;5.80;;;2.00;;
59207;SDS011;44977;53.132;6.408;2022-07-29T16:29:09;6.85;;;2.30;;
59207;SDS011;44977;53.132;6.408;2022-07-29T16:34:10;7.47;;;2.10;;
59207;SDS011;44977;53.132;6.408;2022-07-29T16:39:11;6.55;;;2.42;;
59207;SDS011;44977;53.132;6.408;2022-07-29T16:44:11;5.90;;;1.90;;
59207;SDS011;44977;53.132;6.408;2022-07-29T16:49:13;5.18;;;1.95;;
59207;SDS011;44977;53.132;6.408;2022-07-29T16:54:13;7.00;;;2.50;;
59207;SDS011;44977;53.132;6.408;2022-07-29T16:59:14;8.05;;;2.63;;
59207;SDS011;44977;53.132;6.408;2022-07-29T17:04:15;6.50;;;2.20;;
59207;SDS011;44977;53.132;6.408;2022-07-29T17:09:16;6.65;;;2.40;;
59207;SDS011;44977;53.132;6.408;2022-07-29T17:14:16;5.80;;;1.90;;
59207;SDS011;44977;53.132;6.408;2022-07-29T17:19:17;6.55;;;2.20;;
59207;SDS011;44977;53.132;6.408;2022-07-29T17:24:18;7.07;;;2.00;;
59207;SDS011;44977;53.132;6.408;2022-07-29T17:29:18;6.57;;;2.25;;
59207;SDS011;44977;53.132;6.408;2022-07-29T17:34:19;6.13;;;2.30;;
59207;SDS011;44977;53.132;6.408;2022-07-29T17:39:20;6.00;;;2.20;;
59207;SDS011;44977;53.132;6.408;2022-07-29T17:44:20;6.85;;;2.20;;
59207;SDS011;44977;53.132;6.408;2022-07-29T17:49:21;6.90;;;2.60;;
59207;SDS011;44977;53.132;6.408;2022-07-29T17:54:22;6.03;;;2.38;;
59207;SDS011;44977;53.132;6.408;2022-07-29T17:59:23;6.45;;;2.10;;
59207;SDS011;44977;53.132;6.408;2022-07-29T18:04:23;7.60;;;2.10;;
59207;SDS011;44977;53.132;6.408;2022-07-29T18:09:24;6.53;;;2.28;;
59207;SDS011;44977;53.132;6.408;2022-07-29T18:14:25;6.68;;;2.20;;
59207;SDS011;44977;53.132;6.408;2022-07-29T18:19:25;5.13;;;2.05;;
59207;SDS011;44977;53.132;6.408;2022-07-29T18:24:27;6.85;;;2.20;;
59207;SDS011;44977;53.132;6.408;2022-07-29T18:29:28;6.80;;;2.08;;
59207;SDS011;44977;53.132;6.408;2022-07-29T18:34:29;6.65;;;2.00;;
59207;SDS011;44977;53.132;6.408;2022-07-29T18:39:30;5.38;;;2.10;;
59207;SDS011;44977;53.132;6.408;2022-07-29T18:44:31;6.88;;;2.05;;
59207;SDS011;44977;53.132;6.408;2022-07-29T18:49:32;7.15;;;2.50;;
59207;SDS011;44977;53.132;6.408;2022-07-29T18:54:33;5.25;;;2.10;;
59207;SDS011;44977;53.132;6.408;2022-07-29T18:59:34;7.28;;;2.30;;
59207;SDS011;44977;53.132;6.408;2022-07-29T19:04:34;10.68;;;2.60;;
59207;SDS011;44977;53.132;6.408;2022-07-29T19:09:35;5.97;;;2.40;;
59207;SDS011;44977;53.132;6.408;2022-07-29T19:14:36;8.23;;;2.70;;
59207;SDS011;44977;53.132;6.408;2022-07-29T19:19:36;6.32;;;2.67;;
59207;SDS011;44977;53.132;6.408;2022-07-29T19:24:37;6.50;;;2.60;;
59207;SDS011;44977;53.132;6.408;2022-07-29T19:29:40;9.90;;;3.28;;
59207;SDS011;44977;53.132;6.408;2022-07-29T19:34:44;8.05;;;2.67;;
59207;SDS011;44977;53.132;6.408;2022-07-29T19:40:05;9.05;;;3.10;;
59207;SDS011;44977;53.132;6.408;2022-07-29T19:45:06;7.18;;;3.03;;
59207;SDS011;44977;53.132;6.408;2022-07-29T19:50:08;7.35;;;3.10;;
59207;SDS011;44977;53.132;6.408;2022-07-29T19:55:09;7.70;;;4.32;;
59207;SDS011;44977;53.132;6.408;2022-07-29T20:00:10;8.25;;;4.03;;
59207;SDS011;44977;53.132;6.408;2022-07-29T20:05:11;7.18;;;3.60;;
59207;SDS011;44977;53.132;6.408;2022-07-29T20:10:14;7.65;;;3.42;;
59207;SDS011;44977;53.132;6.408;2022-07-29T20:15:15;7.70;;;3.10;;
59207;SDS011;44977;53.132;6.408;2022-07-29T20:20:16;8.95;;;3.60;;
59207;SDS011;44977;53.132;6.408;2022-07-29T20:25:17;8.43;;;3.20;;
59207;SDS011;44977;53.132;6.408;2022-07-29T20:30:18;10.68;;;3.65;;
59207;SDS011;44977;53.132;6.408;2022-07-29T20:35:19;7.88;;;3.60;;
59207;SDS011;44977;53.132;6.408;2022-07-29T20:40:21;7.35;;;3.42;;
59207;SDS011;44977;53.132;6.408;2022-07-29T20:45:22;7.68;;;3.40;;
59207;SDS011;44977;53.132;6.408;2022-07-29T20:50:23;9.45;;;3.65;;
59207;SDS011;44977;53.132;6.408;2022-07-29T20:55:24;7.55;;;3.40;;
59207;SDS011;44977;53.132;6.408;2022-07-29T21:00:25;7.20;;;3.47;;
59207;SDS011;44977;53.132;6.408;2022-07-29T21:05:26;10.05;;;4.60;;
59207;SDS011;44977;53.132;6.408;2022-07-29T21:10:26;8.23;;;3.97;;
59207;SDS011;44977;53.132;6.408;2022-07-29T21:15:28;8.68;;;4.60;;
59207;SDS011;44977;53.132;6.408;2022-07-29T21:20:29;10.80;;;4.75;;
59207;SDS011;44977;53.132;6.408;2022-07-29T21:25:30;10.57;;;4.40;;
59207;SDS011;44977;53.132;6.408;2022-07-29T21:30:30;8.65;;;4.07;;
59207;SDS011;44977;53.132;6.408;2022-07-29T21:35:31;10.60;;;4.75;;
59207;SDS011;44977;53.132;6.408;2022-07-29T21:40:32;8.43;;;4.95;;
59207;SDS011;44977;53.132;6.408;2022-07-29T21:45:33;10.45;;;4.55;;
59207;SDS011;44977;53.132;6.408;2022-07-29T21:50:33;10.60;;;4.97;;
59207;SDS011;44977;53.132;6.408;2022-07-29T21:55:34;9.82;;;4.82;;
59207;SDS011;44977;53.132;6.408;2022-07-29T22:00:35;8.77;;;4.47;;
59207;SDS011;44977;53.132;6.408;2022-07-29T22:05:37;9.25;;;4.28;;
59207;SDS011;44977;53.132;6.408;2022-07-29T22:10:38;8.52;;;4.40;;
59207;SDS011;44977;53.132;6.408;2022-07-29T22:15:38;11.05;;;4.78;;
59207;SDS011;44977;53.132;6.408;2022-07-29T22:20:39;11.65;;;5.15;;
59207;SDS011;44977;53.132;6.408;2022-07-29T22:25:40;9.60;;;4.30;;
59207;SDS011;44977;53.132;6.408;2022-07-29T22:30:40;11.75;;;5.20;;
59207;SDS011;44977;53.132;6.408;2022-07-29T22:35:41;9.60;;;5.15;;
59207;SDS011;44977;53.132;6.408;2022-07-29T22:40:42;10.98;;;4.80;;
59207;SDS011;44977;53.132;6.408;2022-07-29T22:45:42;11.10;;;4.85;;
59207;SDS011;44977;53.132;6.408;2022-07-29T22:50:43;8.32;;;4.55;;
59207;SDS011;44977;53.132;6.408;2022-07-29T22:55:44;8.93;;;4.35;;
59207;SDS011;44977;53.132;6.408;2022-07-29T23:00:44;8.18;;;4.32;;
59207;SDS011;44977;53.132;6.408;2022-07-29T23:05:45;9.55;;;4.97;;
59207;SDS011;44977;53.132;6.408;2022-07-29T23:10:46;7.88;;;4.40;;
59207;SDS011;44977;53.132;6.408;2022-07-29T23:15:47;9.50;;;4.55;;
59207;SDS011;44977;53.132;6.408;2022-07-29T23:20:47;8.75;;;4.30;;
59207;SDS011;44977;53.132;6.408;2022-07-29T23:25:48;9.20;;;4.50;;
59207;SDS011;44977;53.132;6.408;2022-07-29T23:30:49;7.45;;;4.35;;
59207;SDS011;44977;53.132;6.408;2022-07-29T23:35:49;8.63;;;4.50;;
59207;SDS011;44977;53.132;6.408;2022-07-29T23:40:50;8.55;;;4.10;;
59207;SDS011;44977;53.132;6.408;2022-07-29T23:45:51;10.90;;;4.90;;
59207;SDS011;44977;53.132;6.408;2022-07-29T23:50:52;10.30;;;4.70;;
59207;SDS011;44977;53.132;6.408;2022-07-29T23:55:52;9.13;;;4.75;;
